createdAt,value
2018-12-16T00:04:23.587Z,101884.44
2018-12-16T00:09:26.958Z,101875.45
2018-12-16T00:14:30.402Z,101870.64
2018-12-16T00:19:33.735Z,101865.31
2018-12-16T00:24:37.176Z,101857.66
2018-12-16T00:29:40.567Z,101845.91
2018-12-16T00:34:43.923Z,101836.69
2018-12-16T00:39:47.191Z,101834.98
2018-12-16T00:44:50.571Z,101826.23
2018-12-16T00:49:53.858Z,101818.11
2018-12-16T00:54:57.480Z,101815.41
2018-12-16T01:00:00.680Z,101812.84
2018-12-16T01:05:04.198Z,101813.23
2018-12-16T01:10:08.781Z,101814.45
2018-12-16T01:15:12.326Z,101809.81
2018-12-16T01:20:15.729Z,101807.64
2018-12-16T01:25:19.038Z,101797.90
2018-12-16T01:30:22.318Z,101781.70
2018-12-16T01:35:25.615Z,101780.16
2018-12-16T01:40:28.889Z,101774.83
2018-12-16T01:45:32.115Z,101764.07
2018-12-16T01:50:35.361Z,101750.91
2018-12-16T01:55:38.599Z,101741.60
2018-12-16T02:00:41.871Z,101738.97
2018-12-16T02:05:45.102Z,101732.08
2018-12-16T02:10:48.328Z,101721.80
2018-12-16T02:15:51.498Z,101724.12
2018-12-16T02:20:54.884Z,101714.92
2018-12-16T02:25:58.080Z,101710.34
2018-12-16T02:31:01.303Z,101713.52
2018-12-16T02:36:04.511Z,101714.13
2018-12-16T02:41:07.649Z,101704.70
2018-12-16T02:46:11.066Z,101710.35
2018-12-16T02:51:14.226Z,101700.83
2018-12-16T02:56:17.415Z,101691.84
2018-12-16T03:01:20.592Z,101682.70
2018-12-16T03:06:23.853Z,101683.72
2018-12-16T03:11:27.111Z,101674.11
2018-12-16T03:16:30.411Z,101667.55
2018-12-16T03:21:33.674Z,101657.19
2018-12-16T03:26:36.980Z,101651.60
2018-12-16T03:31:40.192Z,101642.50
2018-12-16T03:36:43.447Z,101639.08
2018-12-16T03:41:46.689Z,101637.92
2018-12-16T03:46:49.836Z,101624.06
2018-12-16T03:51:53.038Z,101627.17
2018-12-16T03:56:56.378Z,101614.77
2018-12-16T04:01:59.738Z,101598.63
2018-12-16T04:07:03.025Z,101591.50
2018-12-16T04:12:06.272Z,101579.66
2018-12-16T04:17:09.709Z,101575.66
2018-12-16T04:22:13.014Z,101566.13
2018-12-16T04:27:16.246Z,101566.58
2018-12-16T04:32:19.529Z,101554.06
2018-12-16T04:37:22.815Z,101553.83
2018-12-16T04:42:26.155Z,101551.36
2018-12-16T04:47:29.341Z,101553.36
2018-12-16T04:52:32.664Z,101547.25
2018-12-16T04:57:36.457Z,101529.84
2018-12-16T05:02:39.639Z,101517.45
2018-12-16T05:07:42.844Z,101521.72
2018-12-16T05:12:46.545Z,101511.34
2018-12-16T05:17:50.368Z,101488.63
2018-12-16T05:22:53.636Z,101483.90
2018-12-16T05:27:56.922Z,101484.58
2018-12-16T05:33:00.159Z,101482.27
2018-12-16T05:38:03.470Z,101491.47
2018-12-16T05:43:06.750Z,101478.00
2018-12-16T05:48:10.045Z,101470.78
2018-12-16T05:53:14.053Z,101463.46
2018-12-16T05:58:17.271Z,101457.73
2018-12-16T06:03:21.026Z,101452.73
2018-12-16T06:08:24.976Z,101461.47
2018-12-16T06:13:28.193Z,101452.09
2018-12-16T06:18:31.525Z,101448.61
2018-12-16T06:23:34.838Z,101436.84
2018-12-16T06:28:38.181Z,101416.55
2018-12-16T06:33:41.363Z,101402.15
2018-12-16T06:38:44.501Z,101393.80
2018-12-16T06:43:47.737Z,101404.60
2018-12-16T06:48:51.115Z,101405.50
2018-12-16T06:53:54.616Z,101412.28
2018-12-16T06:58:57.828Z,101429.30
2018-12-16T07:04:01.150Z,101431.72
2018-12-16T07:09:06.799Z,101417.86
2018-12-16T07:14:10.098Z,101406.56
2018-12-16T07:19:13.368Z,101402.61
2018-12-16T07:24:16.607Z,101409.40
2018-12-16T07:29:19.840Z,101406.27
2018-12-16T07:34:23.048Z,101406.66
2018-12-16T07:39:26.266Z,101396.77
2018-12-16T07:44:29.576Z,101388.03
2018-12-16T07:49:32.860Z,101389.09
2018-12-16T07:54:36.903Z,101379.88
2018-12-16T07:59:40.343Z,101379.49
2018-12-16T08:04:43.624Z,101373.33
2018-12-16T08:09:46.826Z,101373.00
2018-12-16T08:14:50.128Z,101369.92
2018-12-16T08:19:53.839Z,101371.63
2018-12-16T08:24:57.302Z,101371.16
2018-12-16T08:30:00.631Z,101372.55
2018-12-16T08:35:04.750Z,101378.88
2018-12-16T08:40:10.331Z,101378.22
2018-12-16T08:45:13.610Z,101369.40
2018-12-16T08:50:18.919Z,101367.47
2018-12-16T08:55:22.375Z,101366.50
2018-12-16T09:00:25.591Z,101356.28
2018-12-16T09:05:28.900Z,101348.52
2018-12-16T09:10:34.215Z,101346.43
2018-12-16T09:15:37.707Z,101348.25
2018-12-16T09:20:42.881Z,101335.75
2018-12-16T09:25:46.246Z,101337.72
2018-12-16T09:30:49.610Z,101326.91
2018-12-16T09:35:53.181Z,101317.42
2018-12-16T09:40:56.460Z,101302.37
2018-12-16T09:45:59.819Z,101297.60
2018-12-16T09:51:03.416Z,101294.77
2018-12-16T09:56:06.716Z,101297.59
2018-12-16T10:01:11.052Z,101300.14
2018-12-16T10:06:14.393Z,101296.94
2018-12-16T10:11:17.817Z,101294.59
2018-12-16T10:16:21.059Z,101284.16
2018-12-16T10:21:25.239Z,101272.66
2018-12-16T10:26:28.831Z,101267.23
2018-12-16T10:31:32.279Z,101263.83
2018-12-16T10:36:35.686Z,101260.91
2018-12-16T10:41:39.562Z,101259.23
2018-12-16T10:46:42.979Z,101241.64
2018-12-16T10:51:46.432Z,101240.80
2018-12-16T10:56:51.298Z,101218.22
2018-12-16T11:01:54.651Z,101219.52
2018-12-16T11:07:00.524Z,101214.45
2018-12-16T11:12:04.055Z,101215.38
2018-12-16T11:17:07.534Z,101205.03
2018-12-16T11:22:10.998Z,101195.49
2018-12-16T11:27:14.392Z,101194.64
2018-12-16T11:32:17.705Z,101194.47
2018-12-16T11:37:21.048Z,101176.05
2018-12-16T11:42:24.787Z,101171.83
2018-12-16T11:47:28.801Z,101158.77
2018-12-16T11:52:32.267Z,101153.84
2018-12-16T11:57:35.585Z,101147.08
2018-12-16T12:02:40.356Z,101142.37
2018-12-16T12:07:43.709Z,101132.77
2018-12-16T12:12:47.677Z,101120.92
2018-12-16T12:17:50.984Z,101120.66
2018-12-16T12:22:56.361Z,101114.91
2018-12-16T12:28:00.531Z,101115.47
2018-12-16T12:33:03.955Z,101110.50
2018-12-16T12:38:07.213Z,101111.61
2018-12-16T12:43:12.371Z,101091.09
2018-12-16T12:48:24.677Z,101081.87
2018-12-16T12:53:28.544Z,101080.55
2018-12-16T12:58:33.248Z,101088.50
2018-12-16T13:03:39.731Z,101079.08
2018-12-16T13:08:46.768Z,101079.71
2018-12-16T13:13:51.749Z,101066.47
2018-12-16T13:18:55.576Z,101074.63
2018-12-16T13:23:59.703Z,101068.86
2018-12-16T13:29:03.184Z,101062.23
2018-12-16T13:34:06.634Z,101067.25
2018-12-16T13:39:09.930Z,101049.49
2018-12-16T13:44:13.027Z,101060.36
2018-12-16T13:49:16.429Z,101053.05
2018-12-16T13:54:19.720Z,101051.29
2018-12-16T13:59:22.920Z,101042.10
2018-12-16T14:04:26.031Z,101048.97
2018-12-16T14:09:29.520Z,101052.66
2018-12-16T14:14:33.446Z,101068.23
2018-12-16T14:19:38.436Z,101066.84
2018-12-16T14:24:42.135Z,101076.41
2018-12-16T14:29:46.089Z,101078.47
2018-12-16T14:34:49.886Z,101069.38
2018-12-16T14:39:53.462Z,101074.80
2018-12-16T14:44:56.889Z,101066.45
2018-12-16T14:50:00.341Z,101073.11
2018-12-16T14:55:05.050Z,101058.92
2018-12-16T15:00:10.280Z,101051.08
2018-12-16T15:05:13.502Z,101058.42
2018-12-16T15:10:16.836Z,101063.38
2018-12-16T15:15:20.151Z,101068.00
2018-12-16T15:20:23.626Z,101075.09
2018-12-16T15:25:26.945Z,101076.48
2018-12-16T15:30:30.391Z,101070.16
2018-12-16T15:35:33.952Z,101071.87
2018-12-16T15:40:39.834Z,101079.15
2018-12-16T15:45:43.654Z,101076.88
2018-12-16T15:50:47.856Z,101071.48
2018-12-16T15:55:52.406Z,101072.20
2018-12-16T16:00:55.915Z,101066.95
2018-12-16T16:06:02.635Z,101076.26
2018-12-16T16:11:06.056Z,101072.14
2018-12-16T16:16:09.480Z,101078.05
2018-12-16T16:21:12.800Z,101093.73
2018-12-16T16:26:16.543Z,101091.77
2018-12-16T16:31:20.113Z,101098.41
2018-12-16T16:36:23.422Z,101096.84
2018-12-16T16:41:26.761Z,101097.22
2018-12-16T16:46:35.896Z,101097.03
2018-12-16T16:51:39.265Z,101096.77
2018-12-16T16:56:48.502Z,101099.97
2018-12-16T17:01:52.303Z,101099.20
2018-12-16T17:06:55.847Z,101102.47
2018-12-16T17:12:01.523Z,101098.33
2018-12-16T17:17:07.183Z,101095.70
2018-12-16T17:22:11.548Z,101104.84
2018-12-16T17:27:14.832Z,101099.47
2018-12-16T17:32:18.833Z,101100.97
2018-12-16T17:37:22.572Z,101101.50
2018-12-16T17:42:25.903Z,101105.57
2018-12-16T17:47:29.174Z,101106.56
2018-12-16T17:52:32.926Z,101100.56
2018-12-16T17:57:37.092Z,101111.67
2018-12-16T18:02:42.393Z,101117.59
2018-12-16T18:07:47.103Z,101118.18
2018-12-16T18:12:52.255Z,101115.66
2018-12-16T18:17:55.754Z,101116.87
2018-12-16T18:22:59.037Z,101119.11
2018-12-16T18:28:02.531Z,101122.85
2018-12-16T18:33:05.740Z,101123.16
2018-12-16T18:38:11.397Z,101133.42
2018-12-16T18:43:15.982Z,101134.07
2018-12-16T18:48:19.543Z,101127.22
2018-12-16T18:53:23.811Z,101131.70
2018-12-16T18:58:28.929Z,101131.70
2018-12-16T19:03:37.406Z,101135.31
2018-12-16T19:08:41.010Z,101136.62
2018-12-16T19:13:44.800Z,101141.69
2018-12-16T19:18:49.551Z,101138.86
2018-12-16T19:23:54.807Z,101135.77
2018-12-16T19:29:04.338Z,101129.59
2018-12-16T19:34:12.745Z,101131.24
2018-12-16T19:39:23.543Z,101124.87
2018-12-16T19:44:30.113Z,101133.42
2018-12-16T19:49:37.064Z,101132.48
2018-12-16T19:54:41.908Z,101134.14
2018-12-16T19:59:47.589Z,101140.98
2018-12-16T20:04:53.935Z,101140.52
2018-12-16T20:10:04.109Z,101138.03
2018-12-16T20:15:20.153Z,101133.74
2018-12-16T20:20:29.912Z,101139.08
2018-12-16T20:25:41.134Z,101141.61
2018-12-16T20:31:00.623Z,101138.77
2018-12-16T20:36:10.536Z,101130.19
2018-12-16T20:41:21.896Z,101131.17
2018-12-16T20:46:33.592Z,101132.02
2018-12-16T20:51:53.526Z,101141.61
2018-12-16T20:57:00.339Z,101149.37
2018-12-16T21:02:07.194Z,101152.27
2018-12-16T21:07:14.810Z,101138.98
2018-12-16T21:12:20.173Z,101139.77
2018-12-16T21:17:26.107Z,101153.22
2018-12-16T21:22:33.495Z,101165.31
2018-12-16T21:27:38.972Z,101173.87
2018-12-16T21:32:44.919Z,101164.78
2018-12-16T21:37:51.207Z,101168.33
2018-12-16T21:42:57.039Z,101177.86
2018-12-16T21:48:02.484Z,101176.75
2018-12-16T21:53:09.091Z,101183.91
2018-12-16T21:58:14.781Z,101177.27
2018-12-16T22:03:19.956Z,101179.05
2018-12-16T22:08:23.204Z,101176.29
2018-12-16T22:13:26.658Z,101170.50
2018-12-16T22:18:30.540Z,101168.02
2018-12-16T22:23:35.160Z,101174.12
2018-12-16T22:28:41.754Z,101180.77
2018-12-16T22:33:50.950Z,101172.16
2018-12-16T22:38:57.724Z,101171.84
2018-12-16T22:44:03.756Z,101174.28
2018-12-16T22:49:07.139Z,101178.41
2018-12-16T22:54:10.460Z,101188.24
2018-12-16T22:59:13.740Z,101185.05
2018-12-16T23:04:17.171Z,101184.69
2018-12-16T23:09:21.535Z,101196.48
2018-12-16T23:14:24.967Z,101194.97
2018-12-16T23:19:28.936Z,101203.66
2018-12-16T23:24:32.220Z,101209.76
2018-12-16T23:29:35.620Z,101209.78
2018-12-16T23:34:38.851Z,101219.78
2018-12-16T23:39:42.250Z,101218.98
2018-12-16T23:44:45.893Z,101213.16
2018-12-16T23:49:49.968Z,101216.00
2018-12-16T23:54:53.368Z,101213.72
2018-12-16T23:59:56.529Z,101216.00
